Time;durP1;ratioP1;P1;durP2;ratioP2;P2;SDS_P1;SDS_P2;PMS_P1;PMS_P2;Temp;Humidity;BMP_temperature;BMP_pressure;BME280_temperature;BME280_humidity;BME280_pressure;Samples;Min_cycle;Max_cycle;Signal;HPM_P1;HPM_P2
2022/04/05 00:01:35;;;;;;;;;;;7.20;99.90;;;;;;5013057;28;20345;-83
2022/04/05 00:04:00;;;;;;;;;;;7.20;99.90;;;;;;5012937;28;19929;-83
2022/04/05 00:06:26;;;;;;;;;;;7.20;99.90;;;;;;4996407;28;19926;-83
2022/04/05 00:08:51;;;;;;;;;;;7.20;99.90;;;;;;4996611;28;19930;-83
2022/04/05 00:11:16;;;;;;;;;;;7.20;99.90;;;;;;4996483;28;20263;-83
2022/04/05 00:13:42;;;;;;;;;;;7.10;99.90;;;;;;5013055;28;19929;-83
2022/04/05 00:16:07;;;;;;;;;;;7.10;99.90;;;;;;5013835;28;19933;-83
2022/04/05 00:18:33;;;;;;;;;;;7.10;99.90;;;;;;5014110;28;19972;-83
2022/04/05 00:20:58;;;;;;;;;;;7.10;99.90;;;;;;5012401;28;19925;-83
2022/04/05 00:23:25;;;;;;;;;;;7.10;99.90;;;;;;5013909;28;19925;-83
2022/04/05 00:25:51;;;;;;;;;;;7.00;99.90;;;;;;5013737;28;19985;-83
2022/04/05 00:28:16;;;;;;;;;;;7.00;99.90;;;;;;4996508;28;19977;-83
2022/04/05 00:30:41;;;;;;;;;;;7.00;99.90;;;;;;5013722;28;20413;-83
2022/04/05 00:33:07;;;;;;;;;;;7.00;99.90;;;;;;4996323;28;19968;-83
2022/04/05 00:35:32;;;;;;;;;;;7.00;99.90;;;;;;4996132;28;20279;-84
2022/04/05 00:37:58;;;;;;;;;;;7.00;99.90;;;;;;4995986;28;20417;-84
2022/04/05 00:40:25;;;;;;;;;;;7.00;99.90;;;;;;5013376;28;19949;-84
2022/04/05 00:42:50;;;;;;;;;;;7.00;99.90;;;;;;5013648;28;19923;-84
2022/04/05 00:45:16;;;;;;;;;;;6.90;99.90;;;;;;4979754;28;19925;-84
2022/04/05 00:47:45;;;;;;;;;;;6.90;99.90;;;;;;4995824;28;19926;-84
2022/04/05 00:50:12;;;;;;;;;;;7.00;99.90;;;;;;4979557;28;19929;-85
2022/04/05 00:52:37;;;;;;;;;;;6.90;99.90;;;;;;4987605;28;19925;-85
2022/04/05 00:55:03;;;;;;;;;;;6.70;99.90;;;;;;5011922;28;19952;-85
2022/04/05 00:57:29;;;;;;;;;;;6.90;99.90;;;;;;5012313;28;19979;-86
2022/04/05 00:59:55;;;;;;;;;;;6.80;99.90;;;;;;5014078;28;20016;-85
2022/04/05 01:02:21;;;;;;;;;;;6.90;99.90;;;;;;5015484;28;20375;-86
2022/04/05 01:04:47;;;;;;;;;;;6.80;99.90;;;;;;4981581;28;19933;-85
2022/04/05 01:07:14;;;;;;;;;;;6.90;99.90;;;;;;4996141;28;19936;-85
2022/04/05 01:09:39;;;;;;;;;;;6.90;99.90;;;;;;5011937;28;19932;-85
2022/04/05 01:12:06;;;;;;;;;;;6.90;99.90;;;;;;5011813;28;19925;-85
2022/04/05 01:14:32;;;;;;;;;;;7.00;99.90;;;;;;5013207;28;19948;-85
2022/04/05 01:16:57;;;;;;;;;;;6.90;99.90;;;;;;5011557;28;20449;-85
2022/04/05 01:19:23;;;;;;;;;;;6.90;99.90;;;;;;5012659;28;19929;-85
2022/04/05 01:21:49;;;;;;;;;;;6.80;99.90;;;;;;5013214;28;19933;-85
2022/04/05 01:24:14;;;;;;;;;;;6.90;99.90;;;;;;5011379;28;20374;-85
2022/04/05 01:26:44;;;;;;;;;;;6.90;99.90;;;;;;5013077;28;19948;-86
2022/04/05 01:29:09;;;;;;;;;;;6.90;99.90;;;;;;5012880;28;20271;-85
2022/04/05 01:31:39;;;;;;;;;;;6.70;99.90;;;;;;5011448;28;19987;-84
2022/04/05 01:34:04;;;;;;;;;;;6.90;99.90;;;;;;4994735;28;19925;-85
2022/04/05 01:36:30;;;;;;;;;;;6.70;99.90;;;;;;5012780;28;19925;-85
2022/04/05 01:38:55;;;;;;;;;;;7.00;99.90;;;;;;4995060;28;19952;-86
2022/04/05 01:41:21;;;;;;;;;;;6.80;99.90;;;;;;4995231;28;20290;-85
2022/04/05 01:43:47;;;;;;;;;;;7.00;99.90;;;;;;4995383;28;20012;-85
2022/04/05 01:46:12;;;;;;;;;;;6.70;99.90;;;;;;5011323;28;19987;-85
2022/04/05 01:48:39;;;;;;;;;;;;;;;;;;5012024;28;20218;-85
2022/04/05 01:51:05;;;;;;;;;;;;;;;;;;5012774;28;19976;-85
2022/04/05 01:53:30;;;;;;;;;;;6.80;99.90;;;;;;5017339;28;19941;-85
2022/04/05 01:55:56;;;;;;;;;;;6.80;99.90;;;;;;5011230;28;19965;-85
2022/04/05 01:58:21;;;;;;;;;;;6.70;99.90;;;;;;5012463;28;19932;-85
2022/04/05 02:00:49;;;;;;;;;;;6.70;99.90;;;;;;4994341;28;21310;-85
2022/04/05 02:03:15;;;;;;;;;;;;;;;;;;5011849;28;20458;-85
2022/04/05 02:05:40;;;;;;;;;;;6.60;99.90;;;;;;4994459;28;19991;-85
2022/04/05 02:08:06;;;;;;;;;;;6.60;99.90;;;;;;5023722;28;19960;-85
2022/04/05 02:10:31;;;;;;;;;;;6.60;99.90;;;;;;5031735;28;20401;-85
2022/04/05 02:12:57;;;;;;;;;;;6.60;99.90;;;;;;5031871;28;19951;-85
2022/04/05 02:15:22;;;;;;;;;;;6.60;99.90;;;;;;5032147;28;19935;-83
2022/04/05 02:17:48;;;;;;;;;;;6.60;99.90;;;;;;5033119;28;19925;-83
2022/04/05 02:20:14;;;;;;;;;;;6.60;99.90;;;;;;5015217;28;20508;-83
2022/04/05 02:22:39;;;;;;;;;;;6.50;99.90;;;;;;4997974;28;19936;-83
2022/04/05 02:25:06;;;;;;;;;;;6.50;99.90;;;;;;5021298;28;20117;-84
2022/04/05 02:27:31;;;;;;;;;;;6.50;99.90;;;;;;4994575;28;19926;-84
2022/04/05 02:29:57;;;;;;;;;;;6.50;99.90;;;;;;5011132;28;19926;-84
2022/04/05 02:32:22;;;;;;;;;;;6.50;99.90;;;;;;4994279;28;19937;-84
2022/04/05 02:34:47;;;;;;;;;;;6.50;99.90;;;;;;4997025;28;19926;-83
2022/04/05 02:37:13;;;;;;;;;;;6.50;99.90;;;;;;5012271;28;19976;-83
2022/04/05 02:39:38;;;;;;;;;;;6.50;99.90;;;;;;4994338;28;19933;-83
2022/04/05 02:42:04;;;;;;;;;;;6.50;99.90;;;;;;5011864;28;19925;-84
2022/04/05 02:44:30;;;;;;;;;;;6.40;99.90;;;;;;4994587;28;19926;-84
2022/04/05 02:46:55;;;;;;;;;;;6.50;99.90;;;;;;4977642;28;19933;-83
2022/04/05 02:49:20;;;;;;;;;;;6.50;99.90;;;;;;4994245;28;19929;-83
2022/04/05 02:51:46;;;;;;;;;;;6.40;99.90;;;;;;4995416;28;20369;-83
2022/04/05 02:54:11;;;;;;;;;;;6.50;99.90;;;;;;4978228;28;20032;-84
2022/04/05 02:56:37;;;;;;;;;;;6.50;99.90;;;;;;5010690;28;19926;-84
2022/04/05 02:59:03;;;;;;;;;;;6.50;99.90;;;;;;5020145;28;19952;-84
2022/04/05 03:01:28;;;;;;;;;;;6.40;99.90;;;;;;5029875;28;19925;-84
2022/04/05 03:03:53;;;;;;;;;;;6.50;99.90;;;;;;5031548;28;20294;-84
2022/04/05 03:06:19;;;;;;;;;;;6.40;99.90;;;;;;5014409;28;19925;-84
2022/04/05 03:08:46;;;;;;;;;;;6.40;99.90;;;;;;5030750;28;19925;-84
2022/04/05 03:11:12;;;;;;;;;;;6.40;99.90;;;;;;5034374;28;19926;-84
2022/04/05 03:13:39;;;;;;;;;;;6.40;99.90;;;;;;5052307;28;19913;-83
2022/04/05 03:16:05;;;;;;;;;;;6.40;99.90;;;;;;5054292;28;19931;-84
2022/04/05 03:18:30;;;;;;;;;;;6.40;99.90;;;;;;5042008;28;19940;-84
2022/04/05 03:20:55;;;;;;;;;;;6.40;99.90;;;;;;5037285;28;19925;-84
2022/04/05 03:23:21;;;;;;;;;;;6.40;99.90;;;;;;5034115;28;20405;-84
2022/04/05 03:25:48;;;;;;;;;;;6.40;99.90;;;;;;5017257;28;19932;-84
2022/04/05 03:28:13;;;;;;;;;;;6.40;99.90;;;;;;5008202;28;19929;-82
2022/04/05 03:30:39;;;;;;;;;;;6.40;99.90;;;;;;5053520;28;19947;-84
2022/04/05 03:33:04;;;;;;;;;;;6.50;99.90;;;;;;5042699;28;19932;-83
2022/04/05 03:35:30;;;;;;;;;;;6.50;99.90;;;;;;5033307;28;19925;-83
2022/04/05 03:37:56;;;;;;;;;;;6.50;99.90;;;;;;5037788;28;19932;-84
2022/04/05 03:40:21;;;;;;;;;;;6.50;99.90;;;;;;5034857;28;19925;-84
2022/04/05 03:42:47;;;;;;;;;;;6.50;99.90;;;;;;5034598;28;19929;-83
2022/04/05 03:45:12;;;;;;;;;;;6.50;99.90;;;;;;5032952;28;19976;-83
2022/04/05 03:47:38;;;;;;;;;;;6.50;99.90;;;;;;5016799;28;19975;-83
2022/04/05 03:50:03;;;;;;;;;;;6.50;99.90;;;;;;5016675;28;19925;-83
2022/04/05 03:52:29;;;;;;;;;;;6.50;99.90;;;;;;5032971;28;20174;-83
2022/04/05 03:54:54;;;;;;;;;;;6.50;99.90;;;;;;5032972;28;19999;-83
2022/04/05 03:57:20;;;;;;;;;;;6.50;99.90;;;;;;5033679;28;19925;-83
2022/04/05 03:59:45;;;;;;;;;;;6.50;99.90;;;;;;5032785;28;19979;-83
2022/04/05 04:02:11;;;;;;;;;;;6.50;99.90;;;;;;5034224;28;19978;-83
2022/04/05 04:04:36;;;;;;;;;;;6.50;99.90;;;;;;5034363;28;19932;-83
2022/04/05 04:07:02;;;;;;;;;;;6.60;99.90;;;;;;5033277;28;19925;-83
2022/04/05 04:09:27;;;;;;;;;;;6.60;99.90;;;;;;5016405;28;19948;-84
2022/04/05 04:11:53;;;;;;;;;;;6.60;99.90;;;;;;5033938;28;19929;-83
2022/04/05 04:14:18;;;;;;;;;;;6.60;99.90;;;;;;5033823;28;19925;-83
2022/04/05 04:16:44;;;;;;;;;;;6.60;99.90;;;;;;5033280;28;19921;-83
2022/04/05 04:19:09;;;;;;;;;;;6.60;99.90;;;;;;5035738;28;19925;-83
2022/04/05 04:21:35;;;;;;;;;;;6.60;99.90;;;;;;5055663;28;19926;-82
2022/04/05 04:24:01;;;;;;;;;;;6.60;99.90;;;;;;5050423;28;19976;-82
2022/04/05 04:26:26;;;;;;;;;;;6.60;99.90;;;;;;5034633;28;19925;-83
2022/04/05 04:28:53;;;;;;;;;;;6.70;99.90;;;;;;5032356;28;19932;-82
2022/04/05 04:31:19;;;;;;;;;;;6.70;99.90;;;;;;5032691;28;19934;-83
2022/04/05 04:33:44;;;;;;;;;;;6.70;99.90;;;;;;5032530;28;19925;-83
2022/04/05 04:36:10;;;;;;;;;;;6.70;99.90;;;;;;5033682;28;19925;-82
2022/04/05 04:38:36;;;;;;;;;;;6.70;99.90;;;;;;5032347;28;19924;-82
2022/04/05 04:41:01;;;;;;;;;;;6.70;99.90;;;;;;5032307;28;19925;-82
2022/04/05 04:43:27;;;;;;;;;;;6.70;99.90;;;;;;5032085;28;20539;-82
2022/04/05 04:45:53;;;;;;;;;;;6.70;99.90;;;;;;5032056;28;19929;-83
2022/04/05 04:48:19;;;;;;;;;;;6.70;99.90;;;;;;5033164;28;19925;-83
2022/04/05 04:50:46;;;;;;;;;;;6.60;99.90;;;;;;5031735;28;19926;-82
2022/04/05 04:53:11;;;;;;;;;;;6.60;99.90;;;;;;5031529;28;19971;-83
2022/04/05 04:55:37;;;;;;;;;;;6.60;99.90;;;;;;5031928;28;20344;-83
2022/04/05 04:58:02;;;;;;;;;;;6.60;99.90;;;;;;5015697;28;19958;-83
2022/04/05 05:00:28;;;;;;;;;;;6.60;99.90;;;;;;5031840;28;19932;-83
2022/04/05 05:02:53;;;;;;;;;;;6.60;99.90;;;;;;5032007;28;20003;-81
2022/04/05 05:05:19;;;;;;;;;;;6.60;99.90;;;;;;5032974;28;19979;-83
2022/04/05 05:07:45;;;;;;;;;;;6.60;99.90;;;;;;5015489;28;20019;-83
2022/04/05 05:10:11;;;;;;;;;;;6.60;99.90;;;;;;5031538;28;19981;-83
2022/04/05 05:12:40;;;;;;;;;;;6.60;99.90;;;;;;5031372;28;20427;-83
2022/04/05 05:15:08;;;;;;;;;;;6.60;99.90;;;;;;5032545;28;20001;-83
2022/04/05 05:17:34;;;;;;;;;;;6.60;99.90;;;;;;5031839;28;19929;-83
2022/04/05 05:19:59;;;;;;;;;;;6.60;99.90;;;;;;5014947;28;19921;-83
2022/04/05 05:22:25;;;;;;;;;;;6.70;99.90;;;;;;5033070;28;19928;-83
2022/04/05 05:24:50;;;;;;;;;;;6.70;99.90;;;;;;5015567;28;19925;-83
2022/04/05 05:27:16;;;;;;;;;;;6.70;99.90;;;;;;5031035;28;19968;-83
2022/04/05 05:29:41;;;;;;;;;;;6.70;99.90;;;;;;5031356;28;19925;-82
2022/04/05 05:32:07;;;;;;;;;;;6.70;99.90;;;;;;5032511;28;20333;-83
2022/04/05 05:34:32;;;;;;;;;;;6.70;99.90;;;;;;5030591;28;19929;-83
2022/04/05 05:36:58;;;;;;;;;;;6.70;99.90;;;;;;5031500;28;19925;-82
2022/04/05 05:39:23;;;;;;;;;;;6.70;99.90;;;;;;5031181;28;19971;-83
2022/04/05 05:41:49;;;;;;;;;;;6.70;99.90;;;;;;5030659;28;19925;-83
2022/04/05 05:44:14;;;;;;;;;;;6.80;99.90;;;;;;5031125;28;19925;-83
2022/04/05 05:46:39;;;;;;;;;;;6.80;99.90;;;;;;5032957;28;20377;-83
2022/04/05 05:49:05;;;;;;;;;;;6.80;99.90;;;;;;5032574;28;20432;-82
2022/04/05 05:51:30;;;;;;;;;;;6.90;99.90;;;;;;5014189;28;20004;-82
2022/04/05 05:53:56;;;;;;;;;;;6.90;99.90;;;;;;5014743;28;19932;-82
2022/04/05 05:56:21;;;;;;;;;;;6.90;99.90;;;;;;5014351;28;19925;-83
2022/04/05 05:58:50;;;;;;;;;;;6.90;99.90;;;;;;5014566;28;19925;-83
2022/04/05 06:01:16;;;;;;;;;;;6.90;99.90;;;;;;4997923;28;20402;-83
2022/04/05 06:03:42;;;;;;;;;;;6.90;99.90;;;;;;4998778;28;19995;-83
2022/04/05 06:06:07;;;;;;;;;;;6.90;99.90;;;;;;4998119;28;20370;-83
2022/04/05 06:08:32;;;;;;;;;;;7.00;99.90;;;;;;5013104;23;19925;-46
2022/04/05 06:10:58;;;;;;;;;;;7.00;99.90;;;;;;5033517;28;20012;-48
2022/04/05 06:13:24;;;;;;;;;;;7.10;99.90;;;;;;5033312;28;19971;-46
2022/04/05 06:15:50;;;;;;;;;;;7.10;99.90;;;;;;5033261;28;20024;-46
2022/04/05 06:18:15;;;;;;;;;;;7.10;99.90;;;;;;5033454;28;20023;-45
2022/04/05 06:20:41;;;;;;;;;;;7.10;99.90;;;;;;5033538;28;20298;-47
2022/04/05 06:23:06;;;;;;;;;;;7.10;99.90;;;;;;5033259;28;19925;-49
2022/04/05 06:25:36;;;;;;;;;;;7.10;99.90;;;;;;5033604;28;19925;-45
2022/04/05 06:28:02;;;;;;;;;;;7.20;99.90;;;;;;5033274;28;19925;-52
2022/04/05 06:30:29;;;;;;;;;;;7.20;99.90;;;;;;5033203;28;19925;-47
2022/04/05 06:33:13;;;;;;;;;;;7.20;99.90;;;;;;5033221;28;19925;-47
2022/04/05 06:35:39;;;;;;;;;;;7.20;99.90;;;;;;5033284;28;19933;-47
2022/04/05 06:38:05;;;;;;;;;;;7.20;99.90;;;;;;5033195;28;19925;-46
2022/04/05 06:40:31;;;;;;;;;;;7.20;99.90;;;;;;5033277;28;20375;-47
2022/04/05 06:42:56;;;;;;;;;;;7.30;99.90;;;;;;5033053;28;19932;-47
2022/04/05 06:45:24;;;;;;;;;;;;;;;;;;5034400;28;19932;-45
2022/04/05 06:47:50;;;;;;;;;;;7.30;99.90;;;;;;5037156;28;19925;-46
2022/04/05 06:50:20;;;;;;;;;;;7.40;99.90;;;;;;5037000;28;19925;-47
2022/04/05 06:52:46;;;;;;;;;;;7.40;99.90;;;;;;5036969;28;19972;-46
2022/04/05 06:55:12;;;;;;;;;;;7.50;99.90;;;;;;5036999;28;19951;-46
2022/04/05 06:57:37;;;;;;;;;;;7.50;99.90;;;;;;5036730;28;20295;-47
2022/04/05 07:00:06;;;;;;;;;;;7.60;99.90;;;;;;5036985;28;19995;-46
2022/04/05 07:02:32;;;;;;;;;;;7.60;99.90;;;;;;5036632;28;20008;-48
2022/04/05 07:04:58;;;;;;;;;;;7.70;99.90;;;;;;5036819;28;20024;-47
2022/04/05 07:07:23;;;;;;;;;;;7.70;99.90;;;;;;5018964;28;20322;-49
2022/04/05 07:09:48;;;;;;;;;;;7.80;99.90;;;;;;5036530;28;19932;-47
2022/04/05 07:12:14;;;;;;;;;;;7.90;99.90;;;;;;5036460;28;20301;-47
2022/04/05 07:14:40;;;;;;;;;;;7.90;99.90;;;;;;5036632;28;19925;-49
2022/04/05 07:17:05;;;;;;;;;;;7.90;99.90;;;;;;5036623;28;19925;-48
2022/04/05 07:19:31;;;;;;;;;;;7.90;99.90;;;;;;5036454;28;19978;-48
2022/04/05 07:21:56;;;;;;;;;;;8.00;99.90;;;;;;5036561;28;19932;-47
2022/04/05 07:24:22;;;;;;;;;;;8.00;99.90;;;;;;5036397;28;19925;-47
2022/04/05 07:26:47;;;;;;;;;;;8.10;99.90;;;;;;5036125;28;19994;-48
2022/04/05 07:29:13;;;;;;;;;;;8.00;99.90;;;;;;5036376;28;19925;-47
2022/04/05 07:31:38;;;;;;;;;;;8.20;99.90;;;;;;5036316;28;19926;-46
2022/04/05 07:34:04;;;;;;;;;;;8.20;99.90;;;;;;5036312;28;19925;-46
2022/04/05 07:36:30;;;;;;;;;;;8.20;99.90;;;;;;5036207;28;19983;-47
2022/04/05 07:38:56;;;;;;;;;;;8.20;99.90;;;;;;5036087;28;19972;-48
2022/04/05 07:41:21;;;;;;;;;;;8.20;99.90;;;;;;5035820;28;19929;-46
2022/04/05 07:43:47;;;;;;;;;;;8.20;99.90;;;;;;5036159;28;19925;-46
2022/04/05 07:46:12;;;;;;;;;;;8.20;99.90;;;;;;5035978;28;20544;-46
2022/04/05 07:48:39;;;;;;;;;;;8.20;99.90;;;;;;5036018;28;19925;-48
2022/04/05 07:51:04;;;;;;;;;;;8.20;99.90;;;;;;5035955;28;19932;-46
2022/04/05 07:53:30;;;;;;;;;;;8.30;99.90;;;;;;5036019;28;20288;-47
2022/04/05 07:55:56;;;;;;;;;;;8.30;99.90;;;;;;5035609;28;20012;-46
2022/04/05 07:58:22;;;;;;;;;;;8.40;99.90;;;;;;5035187;28;20015;-46
2022/04/05 08:00:47;;;;;;;;;;;8.40;99.90;;;;;;5035778;28;20064;-46
2022/04/05 08:03:13;;;;;;;;;;;8.60;99.90;;;;;;5035724;28;20276;-46
2022/04/05 08:05:39;;;;;;;;;;;8.80;99.90;;;;;;5035808;28;20402;-46
2022/04/05 08:08:05;;;;;;;;;;;8.80;99.90;;;;;;5018518;28;19979;-46
2022/04/05 08:10:30;;;;;;;;;;;8.90;99.90;;;;;;5035432;28;19926;-47
2022/04/05 08:12:56;;;;;;;;;;;8.80;99.90;;;;;;5035533;28;19980;-46
2022/04/05 08:15:22;;;;;;;;;;;9.00;99.90;;;;;;5035767;28;20294;-47
2022/04/05 08:17:48;;;;;;;;;;;9.00;99.90;;;;;;5035483;28;19932;-47
2022/04/05 08:20:14;;;;;;;;;;;9.00;99.90;;;;;;5035410;28;20269;-47
2022/04/05 08:22:40;;;;;;;;;;;9.00;99.90;;;;;;5035405;28;19931;-47
2022/04/05 08:25:06;;;;;;;;;;;8.90;99.90;;;;;;5035254;28;20008;-46
2022/04/05 08:27:33;;;;;;;;;;;9.00;99.90;;;;;;5034213;28;19932;-46
2022/04/05 08:29:58;;;;;;;;;;;9.00;99.90;;;;;;5035281;28;19932;-46
2022/04/05 08:32:24;;;;;;;;;;;9.00;99.90;;;;;;5035189;28;19925;-46
2022/04/05 08:34:49;;;;;;;;;;;9.00;99.90;;;;;;5035033;28;19931;-46
2022/04/05 08:37:15;;;;;;;;;;;9.00;99.90;;;;;;5035090;28;20383;-46
2022/04/05 08:39:42;;;;;;;;;;;9.00;99.90;;;;;;5034937;28;19925;-46
2022/04/05 08:42:08;;;;;;;;;;;9.10;99.90;;;;;;5033926;28;20016;-47
2022/04/05 08:44:34;;;;;;;;;;;9.10;99.90;;;;;;5035044;28;20022;-47
2022/04/05 08:47:00;;;;;;;;;;;9.10;99.90;;;;;;5035284;28;19925;-47
2022/04/05 08:49:27;;;;;;;;;;;9.20;99.90;;;;;;5034898;28;19925;-48
2022/04/05 08:51:52;;;;;;;;;;;9.20;99.90;;;;;;5034509;28;19925;-47
2022/04/05 08:54:18;;;;;;;;;;;9.20;99.90;;;;;;5034522;28;19925;-47
2022/04/05 08:56:44;;;;;;;;;;;9.30;99.90;;;;;;5034771;28;20299;-47
2022/04/05 08:59:09;;;;;;;;;;;9.30;99.90;;;;;;5034811;28;19925;-47
2022/04/05 09:01:34;;;;;;;;;;;9.40;99.90;;;;;;5034496;28;19925;-48
2022/04/05 09:04:00;;;;;;;;;;;9.50;99.90;;;;;;5034424;28;19980;-48
2022/04/05 09:06:30;;;;;;;;;;;9.50;99.90;;;;;;5033261;28;19925;-46
2022/04/05 09:08:59;;;;;;;;;;;9.60;99.90;;;;;;5033304;28;19947;-48
2022/04/05 09:11:27;;;;;;;;;;;9.60;99.90;;;;;;5034265;28;20342;-47
2022/04/05 09:13:57;;;;;;;;;;;9.60;99.90;;;;;;5034395;28;19932;-46
2022/04/05 09:16:31;;;;;;;;;;;9.60;99.90;;;;;;5034332;28;19925;-48
2022/04/05 09:18:57;;;;;;;;;;;9.70;99.90;;;;;;5034491;28;19940;-46
2022/04/05 09:21:22;;;;;;;;;;;9.70;99.90;;;;;;5034022;28;19925;-46
2022/04/05 09:23:52;;;;;;;;;;;9.80;99.90;;;;;;5034242;28;19925;-48
2022/04/05 09:26:18;;;;;;;;;;;9.70;99.90;;;;;;5034153;28;19948;-50
2022/04/05 09:28:50;;;;;;;;;;;9.70;99.90;;;;;;5034107;28;19929;-46
2022/04/05 09:31:22;;;;;;;;;;;9.70;99.90;;;;;;5034065;28;19925;-47
2022/04/05 09:34:01;;;;;;;;;;;9.70;99.90;;;;;;5033856;28;20375;-47
2022/04/05 09:36:40;;;;;;;;;;;9.70;99.90;;;;;;5033998;28;19925;-48
2022/04/05 09:39:25;;;;;;;;;;;9.70;99.90;;;;;;5034217;28;19931;-48
2022/04/05 09:42:00;;;;;;;;;;;9.80;99.90;;;;;;5033896;28;19932;-47
2022/04/05 09:44:27;;;;;;;;;;;9.70;99.90;;;;;;5016095;28;19933;-47
2022/04/05 09:47:03;;;;;;;;;;;9.80;99.90;;;;;;5033828;28;19925;-47
2022/04/05 09:49:34;;;;;;;;;;;9.80;99.90;;;;;;5016285;28;19925;-48
2022/04/05 09:51:59;;;;;;;;;;;9.90;99.90;;;;;;5015968;28;20303;-46
2022/04/05 09:54:29;;;;;;;;;;;9.80;99.90;;;;;;5033624;28;19925;-50
2022/04/05 09:57:06;;;;;;;;;;;9.90;99.90;;;;;;5033774;28;19929;-49
2022/04/05 09:59:32;;;;;;;;;;;;;;;;;;5015899;28;19926;-47
2022/04/05 10:02:06;;;;;;;;;;;10.10;99.90;;;;;;5033532;28;19987;-48
2022/04/05 10:04:34;;;;;;;;;;;10.10;99.90;;;;;;5015840;28;19932;-47
2022/04/05 10:06:59;;;;;;;;;;;10.10;99.90;;;;;;5033404;28;19933;-47
2022/04/05 10:09:26;;;;;;;;;;;10.10;99.90;;;;;;5033268;28;19925;-49
2022/04/05 10:11:51;;;;;;;;;;;10.10;99.90;;;;;;5033267;28;20383;-47
2022/04/05 10:14:20;;;;;;;;;;;10.10;99.90;;;;;;5033592;28;19972;-47
2022/04/05 10:16:48;;;;;;;;;;;10.10;99.90;;;;;;5033264;28;19925;-49
2022/04/05 10:19:14;;;;;;;;;;;10.20;99.90;;;;;;5033308;28;19925;-48
2022/04/05 10:21:43;;;;;;;;;;;;;;;;;;5032823;28;19929;-50
2022/04/05 10:24:10;;;;;;;;;;;10.40;99.90;;;;;;5033422;28;19932;-47
2022/04/05 10:26:36;;;;;;;;;;;10.40;99.90;;;;;;5033310;28;20388;-51
2022/04/05 10:29:15;;;;;;;;;;;10.50;99.90;;;;;;5033249;28;19971;-50
2022/04/05 10:31:49;;;;;;;;;;;10.70;99.90;;;;;;5033373;28;19925;-47
2022/04/05 10:34:15;;;;;;;;;;;10.80;99.90;;;;;;5033072;28;20367;-48
2022/04/05 10:36:51;;;;;;;;;;;10.80;99.90;;;;;;5015321;28;19948;-46
2022/04/05 10:39:22;;;;;;;;;;;11.00;99.90;;;;;;5033166;28;19925;-47
2022/04/05 10:42:26;;;;;;;;;;;11.00;99.90;;;;;;5033113;28;19933;-47
2022/04/05 10:44:53;;;;;;;;;;;11.10;99.90;;;;;;4952665;29;19961;-49
2022/04/05 10:47:19;;;;;;;;;;;11.10;99.90;;;;;;4952865;29;19927;-48
2022/04/05 10:49:47;;;;;;;;;;;11.20;99.90;;;;;;4952768;29;19926;-49
2022/04/05 10:52:15;;;;;;;;;;;11.20;99.90;;;;;;4952706;29;20292;-47
2022/04/05 10:54:43;;;;;;;;;;;11.30;99.90;;;;;;4952757;29;19926;-51
2022/04/05 10:57:29;;;;;;;;;;;11.40;99.90;;;;;;4952651;29;19934;-47
2022/04/05 10:59:58;;;;;;;;;;;11.40;99.90;;;;;;4952829;29;20029;-48
2022/04/05 11:02:40;;;;;;;;;;;11.20;99.90;;;;;;4952742;29;20061;-47
2022/04/05 11:05:15;;;;;;;;;;;11.30;99.90;;;;;;4936665;29;20057;-50
2022/04/05 11:07:52;;;;;;;;;;;11.20;99.90;;;;;;4953246;28;19938;-48
2022/04/05 11:10:21;;;;;;;;;;;11.10;99.90;;;;;;4971881;28;19926;-48
2022/04/05 11:12:47;;;;;;;;;;;11.20;99.90;;;;;;4971808;28;19942;-49
2022/04/05 11:15:15;;;;;;;;;;;11.30;99.90;;;;;;4992158;28;19925;-50
2022/04/05 11:17:41;;;;;;;;;;;11.40;99.90;;;;;;5031493;28;20059;-48
2022/04/05 11:20:07;;;;;;;;;;;11.40;99.90;;;;;;5031386;28;20020;-47
2022/04/05 11:22:38;;;;;;;;;;;11.50;99.90;;;;;;5031736;28;19928;-47
2022/04/05 11:25:08;;;;;;;;;;;11.50;99.90;;;;;;5032798;28;20407;-48
2022/04/05 11:27:45;;;;;;;;;;;11.40;99.90;;;;;;5032761;28;19925;-51
2022/04/05 11:30:22;;;;;;;;;;;11.40;99.90;;;;;;5032934;28;20287;-49
2022/04/05 11:33:12;;;;;;;;;;;11.50;99.90;;;;;;5034449;28;19925;-47
2022/04/05 11:35:42;;;;;;;;;;;11.50;99.90;;;;;;5036493;28;19932;-49
2022/04/05 11:38:14;;;;;;;;;;;11.50;99.90;;;;;;5036138;28;19932;-48
2022/04/05 11:40:43;;;;;;;;;;;11.40;99.90;;;;;;5036045;28;19929;-48
2022/04/05 11:43:17;;;;;;;;;;;11.40;99.90;;;;;;5036123;28;20011;-48
2022/04/05 11:45:45;;;;;;;;;;;11.50;99.90;;;;;;5036216;28;19932;-47
2022/04/05 11:48:17;;;;;;;;;;;11.60;99.90;;;;;;5036022;28;19932;-47
2022/04/05 11:50:42;;;;;;;;;;;11.70;99.90;;;;;;5035887;28;20330;-48
2022/04/05 11:53:21;;;;;;;;;;;11.70;99.90;;;;;;5035727;28;19925;-48
2022/04/05 11:56:02;;;;;;;;;;;11.70;99.90;;;;;;5036036;28;19968;-47
2022/04/05 11:58:29;;;;;;;;;;;11.90;99.90;;;;;;5035868;28;19932;-47
2022/04/05 12:00:54;;;;;;;;;;;12.00;99.90;;;;;;5035754;28;20060;-47
2022/04/05 12:03:20;;;;;;;;;;;12.00;99.90;;;;;;5035674;28;19968;-48
2022/04/05 12:05:46;;;;;;;;;;;12.10;99.90;;;;;;5035647;28;19925;-47
2022/04/05 12:08:13;;;;;;;;;;;12.10;99.90;;;;;;5035383;28;19929;-52
2022/04/05 12:10:40;;;;;;;;;;;12.20;99.90;;;;;;5035708;28;19925;-47
2022/04/05 12:13:05;;;;;;;;;;;12.20;99.90;;;;;;5017608;28;19925;-47
2022/04/05 12:15:32;;;;;;;;;;;12.20;99.90;;;;;;5035891;28;19994;-48
2022/04/05 12:18:17;;;;;;;;;;;12.20;99.90;;;;;;5035413;28;20402;-48
2022/04/05 12:21:02;;;;;;;;;;;12.10;99.90;;;;;;5035582;28;19926;-48
2022/04/05 12:23:35;;;;;;;;;;;12.00;99.90;;;;;;5035289;28;20375;-49
2022/04/05 12:26:21;;;;;;;;;;;11.70;99.90;;;;;;5035376;28;19933;-48
2022/04/05 12:28:50;;;;;;;;;;;11.70;99.90;;;;;;5035118;28;19972;-47
2022/04/05 12:31:17;;;;;;;;;;;11.70;99.90;;;;;;5035246;28;19933;-47
2022/04/05 12:34:02;;;;;;;;;;;11.70;99.90;;;;;;5035129;28;19925;-48
2022/04/05 12:36:32;;;;;;;;;;;11.80;99.90;;;;;;5035468;28;19948;-48
2022/04/05 12:38:58;;;;;;;;;;;12.00;99.90;;;;;;5017558;28;20450;-49
2022/04/05 12:41:24;;;;;;;;;;;12.20;99.90;;;;;;5034765;28;19931;-48
2022/04/05 12:44:03;;;;;;;;;;;12.30;99.90;;;;;;5034811;28;19932;-47
2022/04/05 12:46:35;;;;;;;;;;;12.20;99.90;;;;;;5017274;28;19925;-47
2022/04/05 12:49:12;;;;;;;;;;;12.20;99.90;;;;;;5034872;28;19925;-49
2022/04/05 12:51:38;;;;;;;;;;;12.10;99.90;;;;;;5034627;28;20012;-47
2022/04/05 12:54:03;;;;;;;;;;;12.00;99.90;;;;;;5035024;28;20011;-49
2022/04/05 12:56:29;;;;;;;;;;;11.80;99.90;;;;;;5034849;28;20391;-48
2022/04/05 12:59:02;;;;;;;;;;;11.70;99.90;;;;;;5016859;28;20272;-48
2022/04/05 13:01:29;;;;;;;;;;;11.70;99.90;;;;;;5034829;28;20331;-48
2022/04/05 13:03:58;;;;;;;;;;;11.60;99.90;;;;;;5034505;28;19925;-48
2022/04/05 13:06:28;;;;;;;;;;;11.60;99.90;;;;;;5034318;28;20368;-48
2022/04/05 13:09:04;;;;;;;;;;;11.60;99.90;;;;;;5024031;28;19925;-49
2022/04/05 13:11:30;;;;;;;;;;;11.60;99.90;;;;;;5034327;28;20307;-49
2022/04/05 13:14:06;;;;;;;;;;;11.60;99.90;;;;;;5032983;28;20295;-48
2022/04/05 13:16:32;;;;;;;;;;;11.60;99.90;;;;;;5034359;28;20375;-50
2022/04/05 13:19:05;;;;;;;;;;;11.60;99.90;;;;;;5034498;28;19949;-50
2022/04/05 13:21:33;;;;;;;;;;;11.60;99.90;;;;;;5034345;28;19925;-48
2022/04/05 13:24:02;;;;;;;;;;;11.50;99.90;;;;;;5034323;28;20016;-49
2022/04/05 13:26:28;;;;;;;;;;;11.40;99.90;;;;;;5033262;28;19925;-47
2022/04/05 13:29:01;;;;;;;;;;;11.30;99.90;;;;;;5034081;28;19925;-49
2022/04/05 13:31:30;;;;;;;;;;;11.30;99.90;;;;;;5034173;28;19925;-49
2022/04/05 13:33:56;;;;;;;;;;;11.20;99.90;;;;;;5032814;28;19925;-48
2022/04/05 13:36:21;;;;;;;;;;;11.10;99.90;;;;;;5034035;28;19929;-49
2022/04/05 13:38:47;;;;;;;;;;;11.10;99.90;;;;;;5033899;28;20269;-48
2022/04/05 13:41:12;;;;;;;;;;;11.10;99.90;;;;;;5033901;28;19925;-47
2022/04/05 13:43:38;;;;;;;;;;;11.00;99.90;;;;;;5033671;28;20023;-52
2022/04/05 13:46:04;;;;;;;;;;;11.00;99.90;;;;;;5033975;28;19929;-49
2022/04/05 13:48:30;;;;;;;;;;;11.00;99.90;;;;;;5033909;28;20334;-49
2022/04/05 13:50:56;;;;;;;;;;;11.00;99.90;;;;;;5033722;28;19925;-48
2022/04/05 13:53:21;;;;;;;;;;;11.00;99.90;;;;;;5033487;28;19995;-49
2022/04/05 13:55:47;;;;;;;;;;;11.00;99.90;;;;;;5033705;28;19932;-51
2022/04/05 13:58:12;;;;;;;;;;;11.00;99.90;;;;;;5032639;28;19932;-49
2022/04/05 14:00:39;;;;;;;;;;;11.00;99.90;;;;;;5033703;28;19962;-49
2022/04/05 14:03:05;;;;;;;;;;;11.00;99.90;;;;;;5033735;28;19948;-50
2022/04/05 14:05:30;;;;;;;;;;;11.00;99.90;;;;;;5032325;28;20376;-51
2022/04/05 14:07:56;;;;;;;;;;;10.90;99.90;;;;;;5033343;28;20059;-49
2022/04/05 14:10:21;;;;;;;;;;;10.90;99.90;;;;;;5033918;28;19929;-47
2022/04/05 14:12:47;;;;;;;;;;;10.90;99.90;;;;;;5033312;28;20338;-49
2022/04/05 14:15:12;;;;;;;;;;;10.90;99.90;;;;;;5016098;28;19925;-47
2022/04/05 14:17:38;;;;;;;;;;;11.00;99.90;;;;;;5033529;28;19929;-47
2022/04/05 14:20:05;;;;;;;;;;;11.00;99.90;;;;;;5033357;28;20012;-50
2022/04/05 14:22:31;;;;;;;;;;;11.00;99.90;;;;;;5033562;28;19925;-48
2022/04/05 14:24:57;;;;;;;;;;;11.00;99.90;;;;;;5033237;28;20371;-52
2022/04/05 14:27:22;;;;;;;;;;;10.90;99.90;;;;;;5033217;28;19925;-51
2022/04/05 14:29:48;;;;;;;;;;;10.80;99.90;;;;;;5033365;28;20379;-49